createdAt,value
2022-10-16T00:02:22.190Z,98865.41
2022-10-16T00:07:26.982Z,98867.38
2022-10-16T00:12:30.186Z,98864.50
2022-10-16T00:17:33.169Z,98875.72
2022-10-16T00:22:37.474Z,98873.78
2022-10-16T00:27:40.408Z,98880.38
2022-10-16T00:32:43.291Z,98876.81
2022-10-16T00:37:47.625Z,98875.44
2022-10-16T00:42:50.546Z,98888.13
2022-10-16T00:47:56.206Z,98899.34
2022-10-16T00:53:02.643Z,98904.97
2022-10-16T00:58:05.581Z,98903.94
2022-10-16T01:03:28.709Z,98905.56
2022-10-16T01:08:40.766Z,98898.56
2022-10-16T01:13:48.136Z,98903.63
2022-10-16T01:18:56.562Z,98894.47
2022-10-16T01:24:08.720Z,98904.97
2022-10-16T01:29:19.966Z,98912.41
2022-10-16T01:34:27.439Z,98918.84
2022-10-16T01:39:33.942Z,98926.59
2022-10-16T01:44:40.851Z,98920.09
2022-10-16T01:49:45.920Z,98922.13
2022-10-16T01:54:52.224Z,98911.84
2022-10-16T02:00:00.581Z,98915.13
2022-10-16T02:05:10.575Z,98914.31
2022-10-16T02:10:13.752Z,98909.63
2022-10-16T02:15:18.208Z,98923.72
2022-10-16T02:20:27.292Z,98927.00
2022-10-16T02:25:33.884Z,98922.38
2022-10-16T02:30:42.773Z,98918.66
2022-10-16T02:35:48.623Z,98922.78
2022-10-16T02:40:51.683Z,98928.34
2022-10-16T02:45:55.949Z,98922.53
2022-10-16T02:50:58.901Z,98927.75
2022-10-16T02:56:01.798Z,98922.59
2022-10-16T03:01:06.430Z,98914.03
2022-10-16T03:06:09.433Z,98909.41
2022-10-16T03:11:12.359Z,98905.34
2022-10-16T03:16:16.626Z,98918.47
2022-10-16T03:21:19.508Z,98944.03
2022-10-16T03:26:22.402Z,98945.56
2022-10-16T03:31:26.724Z,98937.41
2022-10-16T03:36:29.729Z,98936.47
2022-10-16T03:41:32.639Z,98933.13
2022-10-16T03:46:36.914Z,98938.78
2022-10-16T03:51:39.847Z,98949.31
2022-10-16T03:56:42.753Z,98944.41
2022-10-16T04:01:47.010Z,98948.88
2022-10-16T04:06:49.927Z,98960.69
2022-10-16T04:11:52.827Z,98961.38
2022-10-16T04:16:57.068Z,98979.88
2022-10-16T04:22:00.081Z,98981.81
2022-10-16T04:27:03.061Z,98973.16
2022-10-16T04:32:07.408Z,98961.69
2022-10-16T04:37:10.343Z,98974.75
2022-10-16T04:42:13.457Z,98983.41
2022-10-16T04:47:17.732Z,98973.03
2022-10-16T04:52:22.573Z,98987.56
2022-10-16T04:57:25.872Z,98983.88
2022-10-16T05:02:30.387Z,98979.09
2022-10-16T05:07:33.279Z,98976.88
2022-10-16T05:12:36.143Z,98987.41
2022-10-16T05:17:42.619Z,98987.41
2022-10-16T05:22:47.687Z,99002.22
2022-10-16T05:27:51.570Z,99010.00
2022-10-16T05:32:55.861Z,99012.50
2022-10-16T05:37:58.736Z,98998.84
2022-10-16T05:43:01.707Z,99005.97
2022-10-16T05:48:06.653Z,99021.63
2022-10-16T05:53:09.551Z,99024.97
2022-10-16T05:58:12.444Z,99041.09
2022-10-16T06:03:16.684Z,99036.72
2022-10-16T06:08:19.742Z,99038.88
2022-10-16T06:13:22.666Z,99044.91
2022-10-16T06:18:27.076Z,99049.41
2022-10-16T06:23:31.254Z,99056.56
2022-10-16T06:28:34.260Z,99064.28
2022-10-16T06:33:39.507Z,99069.94
2022-10-16T06:38:43.131Z,99069.19
2022-10-16T06:43:46.766Z,99075.06
2022-10-16T06:48:51.146Z,99082.63
2022-10-16T06:54:05.039Z,99092.69
2022-10-16T06:59:08.121Z,99089.31
2022-10-16T07:04:12.399Z,99097.66
2022-10-16T07:09:15.491Z,99100.53
2022-10-16T07:14:20.882Z,99097.34
2022-10-16T07:19:28.370Z,99111.44
2022-10-16T07:24:33.736Z,99118.81
2022-10-16T07:29:36.732Z,99136.03
2022-10-16T07:34:41.264Z,99149.84
2022-10-16T07:39:44.245Z,99165.34
2022-10-16T07:44:47.243Z,99171.13
2022-10-16T07:49:51.547Z,99185.13
2022-10-16T07:59:58.633Z,99176.41
2022-10-16T08:05:03.023Z,99162.97
2022-10-16T08:10:07.462Z,99144.69
2022-10-16T08:15:11.796Z,99166.72
2022-10-16T08:20:16.248Z,99162.66
2022-10-16T08:25:19.724Z,99160.69
2022-10-16T08:30:25.135Z,99170.28
2022-10-16T08:35:29.821Z,99180.09
2022-10-16T08:40:35.341Z,99180.75
2022-10-16T08:45:52.309Z,99180.69
2022-10-16T08:50:56.864Z,99177.94
2022-10-16T08:56:00.382Z,99177.66
2022-10-16T09:01:05.859Z,99172.47
2022-10-16T09:06:19.680Z,99164.72
2022-10-16T09:11:36.329Z,99151.72
2022-10-16T09:16:44.534Z,99162.28
2022-10-16T09:21:49.330Z,99163.53
2022-10-16T09:26:53.452Z,99168.53
2022-10-16T09:32:08.465Z,99177.22
2022-10-16T09:37:17.439Z,99167.59
2022-10-16T09:42:22.575Z,99179.31
2022-10-16T09:47:28.095Z,99186.72
2022-10-16T09:52:33.229Z,99186.97
2022-10-16T09:57:36.537Z,99201.53
2022-10-16T10:02:40.769Z,99197.56
2022-10-16T10:07:47.579Z,99211.59
2022-10-16T10:12:50.600Z,99209.44
2022-10-16T10:17:55.856Z,99215.31
2022-10-16T10:23:00.568Z,99226.38
2022-10-16T10:28:20.342Z,99220.94
2022-10-16T10:33:30.829Z,99231.75
2022-10-16T10:38:44.948Z,99232.81
2022-10-16T10:44:00.874Z,99238.59
2022-10-16T10:49:19.655Z,99247.78
2022-10-16T10:54:31.772Z,99244.56
2022-10-16T10:59:55.874Z,99248.22
2022-10-16T11:05:25.319Z,99248.84
2022-10-16T11:10:34.084Z,99250.88
2022-10-16T11:15:39.923Z,99252.94
2022-10-16T11:20:49.371Z,99250.38
2022-10-16T11:25:56.192Z,99247.31
2022-10-16T11:31:04.563Z,99246.78
2022-10-16T11:36:13.678Z,99255.38
2022-10-16T11:41:26.720Z,99260.34
2022-10-16T11:46:29.933Z,99255.13
2022-10-16T11:51:40.621Z,99263.97
2022-10-16T11:56:48.275Z,99270.72
2022-10-16T12:01:56.143Z,99273.25
2022-10-16T12:07:06.084Z,99266.59
2022-10-16T12:12:31.403Z,99268.16
2022-10-16T12:17:39.638Z,99272.88
2022-10-16T12:22:49.633Z,99274.47
2022-10-16T12:28:02.989Z,99275.09
2022-10-16T12:33:08.734Z,99282.03
2022-10-16T12:38:19.705Z,99283.06
2022-10-16T12:43:39.441Z,99289.31
2022-10-16T12:49:05.244Z,99292.81
2022-10-16T12:54:16.210Z,99299.47
2022-10-16T12:59:31.464Z,99291.66
2022-10-16T13:05:00.918Z,99286.88
2022-10-16T13:10:17.548Z,99292.31
2022-10-16T13:15:37.348Z,99300.38
2022-10-16T13:20:56.260Z,99303.19
2022-10-16T13:26:14.301Z,99298.78
2022-10-16T13:31:23.822Z,99295.91
2022-10-16T13:36:28.618Z,99287.41
2022-10-16T13:41:31.552Z,99297.03
2022-10-16T13:46:36.046Z,99308.72
2022-10-16T13:51:39.076Z,99305.31
2022-10-16T13:56:42.489Z,99311.72
2022-10-16T14:01:46.980Z,99317.50
2022-10-16T14:06:52.181Z,99318.72
2022-10-16T14:11:58.864Z,99325.44
2022-10-16T14:17:05.609Z,99320.66
2022-10-16T14:22:32.063Z,99331.03
2022-10-16T14:27:37.695Z,99340.03
2022-10-16T14:32:43.258Z,99327.69
2022-10-16T14:37:46.889Z,99333.25
2022-10-16T14:42:50.074Z,99331.19
2022-10-16T14:47:56.963Z,99341.97
2022-10-16T14:53:00.946Z,99338.22
2022-10-16T14:58:04.100Z,99349.38
2022-10-16T15:03:08.434Z,99348.34
2022-10-16T15:08:11.375Z,99362.28
2022-10-16T15:13:15.126Z,99370.84
2022-10-16T15:18:21.439Z,99370.94
2022-10-16T15:28:32.752Z,99380.91
2022-10-16T15:33:39.859Z,99391.97
2022-10-16T15:38:43.198Z,99399.78
2022-10-16T15:43:46.415Z,99407.53
2022-10-16T15:48:53.076Z,99415.06
2022-10-16T15:53:56.045Z,99405.50
2022-10-16T15:58:59.355Z,99414.03
2022-10-16T16:04:10.986Z,99412.16
2022-10-16T16:09:18.519Z,99425.97
2022-10-16T16:14:21.775Z,99432.06
2022-10-16T16:19:26.141Z,99425.66
2022-10-16T16:24:29.075Z,99428.28
2022-10-16T16:29:32.151Z,99446.75
2022-10-16T16:34:36.518Z,99460.63
2022-10-16T16:39:39.527Z,99464.03
2022-10-16T16:44:42.794Z,99482.25
2022-10-16T16:49:47.693Z,99486.41
2022-10-16T16:54:52.966Z,99498.91
2022-10-16T16:59:56.129Z,99501.91
2022-10-16T17:05:00.397Z,99509.44
2022-10-16T17:10:03.513Z,99513.06
2022-10-16T17:15:07.166Z,99515.66
2022-10-16T17:20:12.135Z,99537.94
2022-10-16T17:25:15.159Z,99542.03
2022-10-16T17:30:18.436Z,99537.72
2022-10-16T17:35:23.157Z,99537.66
2022-10-16T17:40:27.116Z,99552.31
2022-10-16T17:45:30.136Z,99559.19
2022-10-16T17:50:34.525Z,99576.06
2022-10-16T17:55:40.026Z,99570.03
2022-10-16T18:00:42.952Z,99572.72
2022-10-16T18:05:47.255Z,99582.28
2022-10-16T18:10:51.298Z,99593.13
2022-10-16T18:16:01.281Z,99592.31
2022-10-16T18:21:07.394Z,99598.25
2022-10-16T18:26:11.789Z,99607.00
2022-10-16T18:31:17.028Z,99625.06
2022-10-16T18:36:23.781Z,99621.38
2022-10-16T18:41:28.186Z,99632.72
2022-10-16T18:46:31.179Z,99618.59
2022-10-16T18:51:37.792Z,99619.53
2022-10-16T18:56:41.452Z,99619.41
2022-10-16T19:01:44.521Z,99626.69
2022-10-16T19:06:50.979Z,99627.41
2022-10-16T19:11:54.438Z,99629.41
2022-10-16T19:16:57.403Z,99640.19
2022-10-16T19:22:14.220Z,99645.31
2022-10-16T19:27:17.172Z,99649.59
2022-10-16T19:32:20.103Z,99653.84
2022-10-16T19:37:25.929Z,99662.53
2022-10-16T19:42:29.147Z,99662.97
2022-10-16T19:47:32.822Z,99671.47
2022-10-16T19:52:38.280Z,99667.56
2022-10-16T19:57:41.225Z,99675.13
2022-10-16T20:02:44.301Z,99673.19
2022-10-16T20:07:48.558Z,99671.97
2022-10-16T20:12:51.466Z,99667.81
2022-10-16T20:17:54.407Z,99668.16
2022-10-16T20:22:58.692Z,99667.81
2022-10-16T20:28:01.623Z,99674.63
2022-10-16T20:33:04.803Z,99672.00
2022-10-16T20:38:09.121Z,99681.88
2022-10-16T20:43:13.998Z,99683.47
2022-10-16T20:48:16.876Z,99684.16
2022-10-16T20:53:21.206Z,99688.19
2022-10-16T20:58:24.176Z,99697.50
2022-10-16T21:03:27.178Z,99698.56
2022-10-16T21:08:31.780Z,99709.22
2022-10-16T21:13:34.678Z,99710.91
2022-10-16T21:18:43.320Z,99725.50
2022-10-16T21:23:48.951Z,99724.56
2022-10-16T21:28:51.888Z,99731.88
2022-10-16T21:33:55.345Z,99740.84
2022-10-16T21:39:03.744Z,99735.97
2022-10-16T21:44:07.909Z,99740.59
2022-10-16T21:49:13.555Z,99734.22
2022-10-16T21:54:19.921Z,99726.97
2022-10-16T21:59:22.869Z,99737.34
2022-10-16T22:04:25.815Z,99740.66
2022-10-16T22:09:30.246Z,99739.06
2022-10-16T22:14:33.173Z,99739.84
2022-10-16T22:19:36.038Z,99745.06
2022-10-16T22:24:40.278Z,99749.34
2022-10-16T22:29:43.171Z,99758.25
2022-10-16T22:34:46.283Z,99760.81
2022-10-16T22:39:50.647Z,99755.53
2022-10-16T22:44:53.572Z,99755.91
2022-10-16T22:49:56.482Z,99748.44
2022-10-16T22:55:00.756Z,99749.97
2022-10-16T23:00:04.461Z,99749.72
2022-10-16T23:05:08.539Z,99759.84
2022-10-16T23:10:13.108Z,99765.25
2022-10-16T23:15:16.165Z,99763.28
2022-10-16T23:20:19.049Z,99762.69
2022-10-16T23:25:23.339Z,99764.25
2022-10-16T23:30:26.216Z,99772.47
2022-10-16T23:35:29.104Z,99769.66
2022-10-16T23:40:33.496Z,99779.53
2022-10-16T23:45:36.645Z,99775.41
2022-10-16T23:50:39.585Z,99782.53
2022-10-16T23:55:44.448Z,99771.53
